Time;durP1;ratioP1;P1;durP2;ratioP2;P2;SDS_P1;SDS_P2;PMS_P1;PMS_P2;Temp;Humidity;BMP_temperature;BMP_pressure;BME280_temperature;BME280_humidity;BME280_pressure;Samples;Min_cycle;Max_cycle;Signal;HPM_P1;HPM_P2
2021/03/30 00:00:56;;;;;;;4.88;2.90;;;4.50;99.90;;;;;;8363400;28;20033;-64
2021/03/30 00:04:56;;;;;;;4.25;2.75;;;4.40;99.90;;;;;;8364546;28;20033;-63
2021/03/30 00:08:57;;;;;;;4.88;2.25;;;4.40;99.90;;;;;;8365228;28;20025;-64
2021/03/30 00:12:58;;;;;;;3.53;2.40;;;4.40;99.90;;;;;;8363855;28;20036;-64
2021/03/30 00:16:58;;;;;;;5.32;2.33;;;4.30;99.90;;;;;;8365104;28;20025;-64
2021/03/30 00:20:59;;;;;;;7.28;2.80;;;4.30;99.90;;;;;;8364799;28;20021;-64
2021/03/30 00:24:59;;;;;;;4.80;2.72;;;4.00;99.90;;;;;;8364428;28;20025;-63
2021/03/30 00:29:00;;;;;;;4.13;2.47;;;3.90;99.90;;;;;;8362836;28;20020;-64
2021/03/30 00:33:01;;;;;;;3.88;2.65;;;4.00;99.90;;;;;;8363646;28;20100;-64
2021/03/30 00:37:02;;;;;;;4.13;2.30;;;4.00;99.90;;;;;;8347759;28;20027;-63
2021/03/30 00:41:03;;;;;;;3.05;2.10;;;3.80;99.90;;;;;;8328928;28;20119;-64
2021/03/30 00:45:06;;;;;;;6.55;2.72;;;3.80;99.90;;;;;;8328621;28;20593;-63
2021/03/30 00:49:06;;;;;;;6.68;2.70;;;3.80;99.90;;;;;;8329913;28;20046;-64
2021/03/30 00:53:07;;;;;;;5.00;2.72;;;3.90;99.90;;;;;;8330589;28;20388;-64
2021/03/30 00:57:08;;;;;;;9.18;2.83;;;3.80;99.90;;;;;;8330686;28;20034;-64
2021/03/30 01:01:09;;;;;;;4.97;2.83;;;3.70;99.90;;;;;;8330716;28;20025;-63
2021/03/30 01:05:11;;;;;;;4.63;2.70;;;3.70;99.90;;;;;;8330409;28;20641;-64
2021/03/30 01:09:54;;;;;;;4.45;2.72;;;3.70;99.90;;;;;;8329457;28;20515;-64
2021/03/30 01:14:11;;;;;;;5.45;2.60;;;3.50;99.90;;;;;;8296371;28;20050;-64
2021/03/30 01:18:26;;;;;;;6.50;2.97;;;3.70;99.90;;;;;;8330111;28;20022;-63
2021/03/30 01:22:41;;;;;;;4.40;2.60;;;3.80;99.90;;;;;;8329489;28;20041;-63
2021/03/30 01:27:02;;;;;;;6.15;2.55;;;3.60;99.90;;;;;;8329875;28;20396;-64
2021/03/30 01:31:03;;;;;;;4.80;2.47;;;3.30;99.90;;;;;;8327317;28;20026;-63
2021/03/30 01:35:16;;;;;;;5.35;2.78;;;3.00;99.90;;;;;;8329111;28;20041;-64
2021/03/30 01:39:19;;;;;;;4.47;2.50;;;3.00;99.90;;;;;;8329055;28;20029;-64
2021/03/30 01:43:22;;;;;;;4.20;2.60;;;3.30;99.90;;;;;;8327575;28;20440;-63
2021/03/30 01:47:23;;;;;;;7.72;2.58;;;3.40;99.90;;;;;;8333495;28;20108;-64
2021/03/30 01:51:25;;;;;;;8.07;3.25;;;3.30;99.90;;;;;;8341043;28;20032;-64
2021/03/30 01:55:27;;;;;;;3.92;2.55;;;3.20;99.90;;;;;;8338671;28;20057;-64
2021/03/30 01:59:29;;;;;;;6.78;2.80;;;3.00;99.90;;;;;;8328119;28;20021;-65
2021/03/30 02:03:29;;;;;;;5.75;2.83;;;2.80;99.90;;;;;;8327838;28;20025;-64
2021/03/30 02:07:31;;;;;;;4.75;2.50;;;2.70;99.90;;;;;;8325522;28;20513;-64
2021/03/30 02:11:42;;;;;;;8.18;2.45;;;2.70;99.90;;;;;;8328355;28;20029;-63
2021/03/30 02:15:43;;;;;;;5.57;2.55;;;2.90;99.90;;;;;;8328597;28;20528;-64
2021/03/30 02:19:53;;;;;;;5.95;2.72;;;2.70;99.90;;;;;;8326695;28;20032;-64
2021/03/30 02:23:56;;;;;;;4.80;2.97;;;2.60;99.90;;;;;;8327495;28;20037;-64
2021/03/30 02:28:03;;;;;;;5.88;2.83;;;2.70;99.90;;;;;;8327684;28;20028;-64
2021/03/30 02:32:08;;;;;;;4.93;2.78;;;2.80;99.90;;;;;;8326469;28;20032;-63
2021/03/30 02:36:09;;;;;;;6.10;2.80;;;2.70;99.90;;;;;;8326227;28;20025;-64
2021/03/30 02:40:13;;;;;;;5.25;2.63;;;2.40;99.90;;;;;;8327380;28;20611;-64
2021/03/30 02:44:17;;;;;;;6.43;2.67;;;2.40;99.90;;;;;;8325986;28;20026;-64
2021/03/30 02:48:18;;;;;;;5.55;2.25;;;2.40;99.90;;;;;;8326130;28;20029;-64
2021/03/30 02:52:22;;;;;;;3.92;2.58;;;2.50;99.90;;;;;;8326764;28;20036;-64
2021/03/30 02:56:24;;;;;;;6.25;3.00;;;2.40;99.90;;;;;;8326671;28;20385;-64
2021/03/30 03:00:25;;;;;;;6.90;3.28;;;2.30;99.90;;;;;;8327020;28;20631;-64
2021/03/30 03:04:26;;;;;;;4.03;2.75;;;2.30;99.90;;;;;;8327026;28;20488;-64
2021/03/30 03:08:28;;;;;;;5.32;2.88;;;2.50;99.90;;;;;;8327025;28;20018;-64
2021/03/30 03:12:30;;;;;;;6.20;3.05;;;2.40;99.90;;;;;;8326398;28;20029;-64
2021/03/30 03:16:31;;;;;;;6.53;3.17;;;2.40;99.90;;;;;;8325185;28;20025;-64
2021/03/30 03:20:33;;;;;;;5.95;2.97;;;2.70;99.90;;;;;;8326845;28;20435;-63
2021/03/30 03:24:33;;;;;;;4.93;3.05;;;2.80;99.90;;;;;;8326180;28;20025;-64
2021/03/30 03:28:44;;;;;;;4.03;2.67;;;2.60;99.90;;;;;;8326634;28;20104;-63
2021/03/30 03:32:45;;;;;;;4.15;2.72;;;2.50;99.90;;;;;;8326410;28;20083;-64
2021/03/30 03:36:47;;;;;;;5.90;2.88;;;2.40;99.90;;;;;;8326316;28;20112;-63
2021/03/30 03:40:48;;;;;;;5.65;3.05;;;2.40;99.90;;;;;;8326416;28;20031;-64
2021/03/30 03:44:48;;;;;;;6.40;2.80;;;2.30;99.90;;;;;;8325962;28;20512;-64
2021/03/30 03:48:49;;;;;;;5.03;2.65;;;2.30;99.90;;;;;;8326287;28;20021;-64
2021/03/30 03:52:53;;;;;;;4.35;2.58;;;2.40;99.90;;;;;;8326045;28;20548;-64
2021/03/30 03:57:03;;;;;;;4.13;2.78;;;1.90;99.90;;;;;;8323779;28;20039;-64
2021/03/30 04:01:09;;;;;;;4.10;2.75;;;1.60;99.90;;;;;;8326020;28;20061;-64
2021/03/30 04:05:32;;;;;;;7.93;2.50;;;1.50;99.90;;;;;;8330071;28;20068;-64
2021/03/30 04:09:35;;;;;;;9.65;3.00;;;1.50;99.90;;;;;;8332724;28;20026;-64
2021/03/30 04:13:37;;;;;;;4.43;2.65;;;1.50;99.90;;;;;;8331154;28;20486;-64
2021/03/30 04:17:40;;;;;;;6.28;2.88;;;1.50;99.90;;;;;;8328356;28;20025;-65
2021/03/30 04:21:41;;;;;;;6.03;3.17;;;1.60;99.90;;;;;;8329453;28;20293;-64
2021/03/30 04:25:43;;;;;;;10.43;3.67;;;1.50;99.90;;;;;;8330335;28;20112;-64
2021/03/30 04:29:45;;;;;;;10.15;3.42;;;1.50;99.90;;;;;;8329758;28;20057;-63
2021/03/30 04:33:45;;;;;;;7.13;3.22;;;1.90;99.90;;;;;;8329288;28;20026;-64
2021/03/30 04:37:46;;;;;;;9.90;3.55;;;2.00;99.90;;;;;;8331070;28;20053;-63
2021/03/30 04:41:46;;;;;;;6.40;3.47;;;2.00;99.90;;;;;;8330109;28;20026;-65
2021/03/30 04:45:47;;;;;;;8.60;3.67;;;1.90;99.90;;;;;;8330863;28;20107;-63
2021/03/30 04:49:48;;;;;;;6.72;3.50;;;1.80;99.90;;;;;;8330852;28;20041;-64
2021/03/30 04:53:48;;;;;;;5.28;3.45;;;1.80;99.90;;;;;;8327640;28;20029;-64
2021/03/30 04:57:49;;;;;;;10.60;3.92;;;1.80;99.90;;;;;;8328735;28;20033;-64
2021/03/30 05:01:49;;;;;;;8.77;4.28;;;1.80;99.90;;;;;;8330387;28;20022;-64
2021/03/30 05:05:50;;;;;;;11.88;3.70;;;1.90;99.90;;;;;;8328897;28;20037;-64
2021/03/30 05:09:51;;;;;;;5.72;2.90;;;2.00;99.90;;;;;;8323652;28;20109;-64
2021/03/30 05:13:51;;;;;;;9.25;5.07;;;2.00;99.90;;;;;;8311289;28;20033;-64
2021/03/30 05:17:52;;;;;;;10.65;5.03;;;2.10;99.90;;;;;;8327912;28;20029;-64
2021/03/30 05:21:52;;;;;;;10.02;5.47;;;1.70;99.90;;;;;;8327397;28;20025;-64
2021/03/30 05:25:53;;;;;;;14.63;6.40;;;1.80;99.90;;;;;;8327593;28;20021;-64
2021/03/30 05:29:53;;;;;;;15.10;7.05;;;1.90;99.90;;;;;;8328908;28;20025;-64
2021/03/30 05:33:54;;;;;;;13.38;6.38;;;2.30;99.90;;;;;;8327408;28;20112;-64
2021/03/30 05:37:55;;;;;;;11.73;6.70;;;2.60;99.90;;;;;;8327419;28;20072;-65
2021/03/30 05:41:56;;;;;;;12.60;5.88;;;2.70;99.90;;;;;;8327772;28;20040;-64
2021/03/30 05:46:00;;;;;;;11.95;5.13;;;2.80;99.90;;;;;;8328122;28;20029;-64
2021/03/30 05:50:13;;;;;;;8.57;4.47;;;3.10;99.90;;;;;;8328140;28;20036;-64
2021/03/30 05:54:18;;;;;;;7.38;4.00;;;3.20;99.90;;;;;;8323888;28;20037;-64
2021/03/30 05:58:19;;;;;;;8.05;4.82;;;3.40;99.90;;;;;;8325922;28;20025;-63
2021/03/30 06:02:21;;;;;;;14.02;4.68;;;3.50;99.90;;;;;;8325492;28;20029;-64
2021/03/30 06:06:22;;;;;;;7.13;4.47;;;3.80;99.90;;;;;;8301922;28;20018;-65
2021/03/30 06:10:24;;;;;;;6.50;3.42;;;4.00;99.90;;;;;;8294192;28;20492;-63
2021/03/30 06:14:44;;;;;;;5.72;3.47;;;4.10;99.90;;;;;;8294477;28;20097;-64
2021/03/30 06:18:45;;;;;;;9.77;3.72;;;4.40;99.90;;;;;;8293425;28;20067;-63
2021/03/30 06:22:49;;;;;;;6.13;3.58;;;4.50;99.90;;;;;;8294907;28;20072;-65
2021/03/30 06:26:52;;;;;;;6.28;3.60;;;4.70;99.90;;;;;;8293793;28;20072;-64
2021/03/30 06:31:04;;;;;;;8.90;3.78;;;5.00;99.90;;;;;;8325484;28;20104;-63
2021/03/30 06:35:13;;;;;;;6.88;3.72;;;5.10;99.90;;;;;;8323921;28;20021;-65
2021/03/30 06:39:14;;;;;;;8.50;3.35;;;5.20;99.90;;;;;;8299078;28;20079;-64
2021/03/30 06:47:40;;;;;;;5.32;3.28;;;5.80;99.90;;;;;;8326616;28;20036;-64
2021/03/30 06:51:41;;;;;;;7.70;3.60;;;6.10;99.90;;;;;;8325864;28;20584;-64
2021/03/30 06:55:53;;;;;;;10.48;4.88;;;6.30;99.90;;;;;;8326306;28;20037;-64
2021/03/30 06:59:53;;;;;;;10.20;5.60;;;6.40;99.90;;;;;;8317325;28;20034;-64
2021/03/30 07:03:55;;;;;;;13.15;5.57;;;6.80;99.90;;;;;;8320908;28;20079;-63
2021/03/30 07:07:58;;;;;;;10.18;5.38;;;7.00;99.90;;;;;;8326079;28;20022;-63
2021/03/30 07:12:00;;;;;;;9.82;5.03;;;7.40;99.90;;;;;;8326601;28;20018;-64
2021/03/30 07:16:08;;;;;;;9.25;4.32;;;7.70;99.90;;;;;;8325770;28;20430;-64
2021/03/30 07:20:10;;;;;;;12.98;4.88;;;8.10;99.90;;;;;;8324698;28;20539;-63
2021/03/30 07:24:12;;;;;;;8.57;5.07;;;8.30;99.90;;;;;;8323726;28;20022;-64
2021/03/30 07:28:17;;;;;;;7.47;4.80;;;8.70;99.90;;;;;;8325966;28;20076;-64
2021/03/30 07:32:37;;;;;;;10.43;5.10;;;8.90;99.90;;;;;;8325751;28;20486;-62
2021/03/30 07:36:59;;;;;;;8.45;5.40;;;9.10;99.90;;;;;;8293355;28;20030;-63
2021/03/30 07:41:00;;;;;;;8.93;4.50;;;9.50;99.90;;;;;;8320604;28;20034;-62
2021/03/30 07:45:01;;;;;;;13.55;4.70;;;9.70;99.90;;;;;;8331652;28;20043;-63
2021/03/30 07:49:03;;;;;;;7.68;4.35;;;10.10;99.90;;;;;;8332700;28;20083;-62
2021/03/30 07:53:04;;;;;;;8.05;4.80;;;10.30;99.90;;;;;;8330718;28;20032;-62
2021/03/30 07:57:04;;;;;;;6.10;3.90;;;10.60;99.90;;;;;;8331563;28;20388;-62
2021/03/30 08:01:06;;;;;;;6.85;3.85;;;11.10;99.90;;;;;;8332517;28;20076;-63
2021/03/30 08:05:10;;;;;;;8.82;5.03;;;11.40;99.90;;;;;;8329349;28;20092;-62
2021/03/30 08:09:12;;;;;;;9.25;4.10;;;11.70;99.90;;;;;;8330776;28;20107;-62
2021/03/30 08:13:25;;;;;;;7.60;4.85;;;11.80;99.90;;;;;;8330119;28;20025;-63
2021/03/30 08:17:27;;;;;;;5.88;3.97;;;12.10;99.90;;;;;;8331009;28;20029;-62
2021/03/30 08:21:54;;;;;;;9.00;4.00;;;12.40;99.90;;;;;;8331248;28;20091;-62
2021/03/30 08:26:29;;;;;;;6.82;3.75;;;12.60;99.90;;;;;;8333451;28;20468;-63
2021/03/30 08:30:53;;;;;;;6.10;3.90;;;12.80;99.90;;;;;;8331392;28;20021;-64
2021/03/30 08:34:54;;;;;;;6.15;3.20;;;13.10;99.90;;;;;;8329869;28;20029;-64
2021/03/30 08:38:58;;;;;;;6.30;3.10;;;13.30;99.90;;;;;;8328482;28;20395;-63
2021/03/30 08:42:59;;;;;;;9.52;4.32;;;13.80;99.90;;;;;;8329106;28;20112;-63
2021/03/30 08:47:00;;;;;;;6.13;3.45;;;14.20;99.30;;;;;;8329429;28;20093;-64
2021/03/30 08:51:05;;;;;;;5.32;3.40;;;14.30;99.70;;;;;;8329421;28;20033;-64
2021/03/30 08:55:08;;;;;;;6.13;3.03;;;14.50;99.80;;;;;;8329085;28;20025;-64
2021/03/30 08:59:10;;;;;;;4.57;2.65;;;14.70;95.60;;;;;;8325114;28;20033;-62
2021/03/30 09:03:11;;;;;;;11.48;3.00;;;14.80;94.80;;;;;;8318928;28;20496;-64
2021/03/30 09:07:12;;;;;;;12.15;3.03;;;15.10;94.50;;;;;;8330663;28;20028;-63
2021/03/30 09:11:19;;;;;;;4.88;3.22;;;15.30;92.50;;;;;;8330870;28;20029;-64
2021/03/30 09:15:20;;;;;;;4.78;2.70;;;15.50;91.00;;;;;;8330169;28;20097;-63
2021/03/30 09:19:24;;;;;;;3.80;2.58;;;15.70;91.50;;;;;;8331613;28;20639;-63
2021/03/30 09:23:27;;;;;;;3.70;2.42;;;15.80;93.60;;;;;;8329356;28;20495;-63
2021/03/30 09:27:30;;;;;;;6.85;2.90;;;16.10;91.80;;;;;;8325876;28;20033;-63
2021/03/30 09:31:31;;;;;;;8.85;2.85;;;16.30;92.40;;;;;;8300489;28;20018;-64
2021/03/30 09:35:32;;;;;;;6.47;3.03;;;16.50;90.30;;;;;;8324102;28;20041;-63
2021/03/30 09:39:35;;;;;;;3.55;2.75;;;16.70;92.40;;;;;;8309188;28;20515;-64
2021/03/30 09:43:36;;;;;;;6.45;2.92;;;17.00;90.50;;;;;;8325557;28;20068;-63
2021/03/30 09:47:37;;;;;;;4.43;2.70;;;17.30;79.00;;;;;;8331527;28;20014;-63
2021/03/30 09:51:39;;;;;;;4.95;2.78;;;17.90;79.00;;;;;;8327335;28;20036;-63
2021/03/30 09:55:48;;;;;;;3.65;2.72;;;18.00;77.80;;;;;;8327675;28;20025;-64
2021/03/30 09:59:50;;;;;;;4.57;2.70;;;18.30;75.80;;;;;;8326718;28;20025;-63
2021/03/30 10:03:51;;;;;;;7.20;2.65;;;18.60;69.80;;;;;;8326261;28;20021;-63
2021/03/30 10:07:52;;;;;;;4.85;2.60;;;18.90;68.70;;;;;;8326809;28;20025;-64
2021/03/30 10:11:55;;;;;;;3.67;2.53;;;19.10;67.60;;;;;;8326018;28;20506;-63
2021/03/30 10:15:58;;;;;;;4.50;2.78;;;19.10;70.70;;;;;;8346549;22;20034;-66
2021/03/30 10:20:00;;;;;;;4.75;2.88;;;19.50;64.30;;;;;;8289669;28;20183;-67
2021/03/30 10:24:10;;;;;;;5.60;2.90;;;19.80;63.00;;;;;;8293411;28;20057;-66
2021/03/30 10:28:11;;;;;;;5.70;2.90;;;19.90;62.40;;;;;;8294891;28;20069;-67
2021/03/30 10:32:15;;;;;;;5.32;3.13;;;20.10;64.50;;;;;;8293811;28;20034;-66
2021/03/30 10:36:17;;;;;;;7.20;3.42;;;20.30;62.90;;;;;;8293789;28;20403;-66
2021/03/30 10:40:18;;;;;;;4.53;3.00;;;20.70;61.00;;;;;;8293655;28;20033;-66
2021/03/30 10:44:18;;;;;;;7.15;3.67;;;20.70;59.40;;;;;;8290047;28;20026;-66
2021/03/30 10:48:19;;;;;;;5.47;3.25;;;20.80;53.10;;;;;;8291518;28;20033;-67
2021/03/30 10:52:25;;;;;;;6.03;4.00;;;20.70;60.90;;;;;;8275645;28;20219;-67
2021/03/30 10:56:28;;;;;;;4.07;3.40;;;21.10;57.60;;;;;;8275839;28;20428;-67
2021/03/30 11:00:28;;;;;;;5.60;3.50;;;21.00;53.50;;;;;;8284505;28;20033;-66
2021/03/30 11:04:29;;;;;;;5.03;2.97;;;21.60;53.10;;;;;;8285308;28;20030;-67
2021/03/30 11:08:29;;;;;;;8.15;3.38;;;24.70;46.20;;;;;;8284955;28;20022;-68
2021/03/30 11:12:30;;;;;;;4.65;3.25;;;28.60;42.10;;;;;;8287511;28;20038;-67
2021/03/30 11:16:31;;;;;;;5.68;3.30;;;31.10;35.00;;;;;;8289421;28;20034;-67
2021/03/30 11:20:32;;;;;;;6.68;3.38;;;31.80;33.80;;;;;;8274395;28;20025;-68
2021/03/30 11:24:35;;;;;;;6.15;3.63;;;33.70;30.00;;;;;;8292043;28;20480;-68
2021/03/30 11:28:40;;;;;;;5.07;3.40;;;35.10;28.70;;;;;;8292029;28;20497;-69
2021/03/30 11:32:45;;;;;;;3.85;3.30;;;34.70;28.60;;;;;;8274448;28;20404;-68
2021/03/30 11:36:48;;;;;;;3.88;3.10;;;35.00;28.30;;;;;;8288041;28;20109;-68
2021/03/30 11:40:48;;;;;;;4.75;3.00;;;37.20;28.40;;;;;;8286653;28;20545;-69
2021/03/30 11:44:50;;;;;;;6.32;3.35;;;37.60;25.80;;;;;;8285695;28;20030;-68
2021/03/30 11:48:50;;;;;;;4.38;3.10;;;36.20;25.30;;;;;;8285823;28;20590;-68
2021/03/30 11:52:51;;;;;;;6.40;2.80;;;33.30;27.80;;;;;;8291646;28;20026;-68
2021/03/30 11:56:52;;;;;;;4.13;2.60;;;33.10;29.20;;;;;;8292033;28;20587;-67
2021/03/30 12:00:52;;;;;;;3.67;2.90;;;35.40;24.40;;;;;;8285653;28;20040;-67
2021/03/30 12:04:53;;;;;;;6.05;3.78;;;36.30;25.50;;;;;;8289428;28;20026;-68
2021/03/30 12:08:53;;;;;;;8.25;4.53;;;35.40;25.30;;;;;;8291641;28;20077;-69
2021/03/30 12:12:54;;;;;;;4.43;2.40;;;36.90;25.40;;;;;;8290990;28;20029;-68
2021/03/30 12:16:54;;;;;;;4.60;2.60;;;35.90;24.20;;;;;;8291663;28;20037;-67
2021/03/30 12:20:55;;;;;;;9.65;2.58;;;36.90;25.80;;;;;;8274511;28;20045;-68
2021/03/30 12:24:56;;;;;;;5.18;3.00;;;39.30;24.20;;;;;;8294190;28;20065;-70
2021/03/30 12:28:58;;;;;;;3.38;2.75;;;41.00;21.70;;;;;;8295352;28;20034;-68
2021/03/30 12:32:59;;;;;;;4.30;2.95;;;37.90;22.70;;;;;;8297947;28;20050;-67
2021/03/30 12:37:01;;;;;;;3.33;2.13;;;36.50;25.20;;;;;;8278209;28;20030;-67
2021/03/30 12:41:02;;;;;;;3.97;3.08;;;35.20;23.50;;;;;;8296411;28;20029;-68
2021/03/30 12:45:04;;;;;;;5.25;3.20;;;35.60;26.30;;;;;;8278807;28;20018;-67
2021/03/30 12:49:04;;;;;;;5.78;3.35;;;34.90;25.50;;;;;;8290497;28;20018;-67
2021/03/30 12:53:06;;;;;;;5.50;3.30;;;35.60;26.60;;;;;;8296936;28;20080;-69
2021/03/30 12:57:07;;;;;;;3.25;2.67;;;39.40;24.40;;;;;;8296925;28;20109;-67
2021/03/30 13:01:08;;;;;;;4.40;2.75;;;35.10;22.80;;;;;;8297009;28;20480;-67
2021/03/30 13:05:09;;;;;;;5.25;2.72;;;34.40;24.20;;;;;;8296044;28;20396;-67
2021/03/30 13:09:10;;;;;;;3.50;2.65;;;34.40;23.90;;;;;;8277902;28;20036;-67
2021/03/30 13:13:11;;;;;;;2.00;1.80;;;36.60;25.20;;;;;;8295929;28;20543;-67
2021/03/30 13:17:11;;;;;;;3.42;2.13;;;39.10;21.00;;;;;;8292271;28;20113;-67
2021/03/30 13:21:12;;;;;;;3.25;2.03;;;38.70;19.30;;;;;;8291598;28;20029;-68
2021/03/30 13:25:21;;;;;;;5.13;2.30;;;40.60;19.80;;;;;;8289757;28;20033;-68
2021/03/30 13:29:22;;;;;;;2.90;2.50;;;40.70;22.00;;;;;;8290663;28;20033;-68
2021/03/30 13:33:23;;;;;;;4.25;2.10;;;38.40;22.10;;;;;;8295329;28;20029;-68
2021/03/30 13:37:23;;;;;;;4.38;2.33;;;41.20;21.00;;;;;;8294306;28;20033;-68
2021/03/30 13:41:25;;;;;;;2.40;2.00;;;44.10;18.90;;;;;;8293961;28;20088;-68
2021/03/30 13:45:26;;;;;;;4.85;2.38;;;43.90;19.60;;;;;;8274354;28;20030;-67
2021/03/30 13:49:28;;;;;;;5.28;2.47;;;39.60;20.70;;;;;;8292985;28;20014;-67
2021/03/30 13:53:29;;;;;;;2.50;1.95;;;37.80;20.00;;;;;;8270834;28;20022;-68
2021/03/30 13:57:30;;;;;;;3.17;2.08;;;38.90;20.20;;;;;;8294477;28;20049;-68
2021/03/30 14:01:31;;;;;;;4.53;2.03;;;39.40;21.00;;;;;;8295146;28;20512;-66
2021/03/30 14:05:31;;;;;;;6.28;2.30;;;39.00;21.90;;;;;;8295626;28;20018;-68
2021/03/30 14:09:33;;;;;;;4.05;2.03;;;41.10;22.30;;;;;;8293600;28;20073;-68
2021/03/30 14:13:42;;;;;;;5.35;2.58;;;42.50;19.90;;;;;;8287632;28;20384;-68
2021/03/30 14:17:44;;;;;;;4.28;2.70;;;39.20;21.60;;;;;;8289811;28;20018;-68
2021/03/30 14:21:54;;;;;;;8.35;2.92;;;38.70;23.70;;;;;;8288623;28;21318;-67
2021/03/30 14:25:55;;;;;;;5.20;2.50;;;38.00;22.40;;;;;;8287661;28;20121;-68
2021/03/30 14:29:56;;;;;;;4.18;2.47;;;39.50;22.50;;;;;;8275165;28;20065;-68
2021/03/30 14:33:56;;;;;;;4.28;2.55;;;41.30;21.20;;;;;;8286699;28;20492;-69
2021/03/30 14:37:57;;;;;;;2.75;2.10;;;43.40;20.60;;;;;;8281949;28;20025;-69
2021/03/30 14:54:31;;;;;;;3.22;2.00;;;41.10;21.10;;;;;;8287310;28;20044;-66
2021/03/30 15:02:59;;;;;;;4.30;2.20;;;42.70;19.80;;;;;;8291736;28;20029;-66
2021/03/30 15:07:00;;;;;;;4.65;2.40;;;42.60;19.80;;;;;;8276268;28;20098;-66
2021/03/30 15:11:00;;;;;;;2.78;2.28;;;42.50;19.30;;;;;;8294472;28;20112;-65
2021/03/30 15:15:01;;;;;;;7.90;2.90;;;36.10;22.10;;;;;;8293870;28;20021;-66
2021/03/30 15:19:02;;;;;;;6.82;2.28;;;36.50;22.20;;;;;;8276532;28;20037;-66
2021/03/30 15:23:02;;;;;;;4.88;2.55;;;36.20;22.70;;;;;;8293883;28;20484;-66
2021/03/30 15:27:04;;;;;;;4.18;2.40;;;37.30;23.00;;;;;;8292835;28;20069;-66
2021/03/30 15:31:05;;;;;;;3.83;2.22;;;36.30;23.00;;;;;;8293994;28;20025;-65
2021/03/30 15:35:07;;;;;;;4.07;3.15;;;35.60;23.80;;;;;;8293272;28;20032;-66
2021/03/30 15:39:09;;;;;;;6.50;3.10;;;34.40;23.10;;;;;;8276178;28;20049;-65
2021/03/30 15:43:11;;;;;;;3.97;2.40;;;32.30;26.40;;;;;;8275939;28;20030;-66
2021/03/30 15:47:18;;;;;;;3.95;2.60;;;33.80;25.70;;;;;;8293026;28;20033;-66
2021/03/30 15:51:18;;;;;;;3.58;2.70;;;34.70;25.20;;;;;;8293479;28;20026;-66
2021/03/30 15:55:19;;;;;;;5.72;2.10;;;34.70;22.80;;;;;;8293454;28;20029;-66
2021/03/30 15:59:20;;;;;;;3.33;2.20;;;34.60;26.20;;;;;;8277526;28;20574;-66
2021/03/30 16:03:21;;;;;;;3.70;2.03;;;33.50;25.90;;;;;;8299389;28;20033;-66
2021/03/30 16:07:21;;;;;;;4.38;2.08;;;31.70;28.90;;;;;;8299385;28;20129;-66
2021/03/30 16:11:22;;;;;;;4.63;2.40;;;29.70;27.10;;;;;;8299906;28;20450;-65
2021/03/30 16:15:22;;;;;;;3.78;1.83;;;27.80;28.20;;;;;;8299383;28;20102;-66
2021/03/30 16:19:23;;;;;;;5.05;1.90;;;27.00;32.00;;;;;;8298387;28;20623;-66
2021/03/30 16:23:23;;;;;;;3.70;1.70;;;27.70;33.10;;;;;;8298597;28;20025;-65
2021/03/30 16:27:25;;;;;;;3.40;1.70;;;28.50;34.30;;;;;;8281617;28;20026;-66
2021/03/30 16:31:25;;;;;;;3.78;1.65;;;29.40;33.10;;;;;;8275694;28;20516;-66
2021/03/30 16:35:26;;;;;;;4.20;1.88;;;30.10;31.10;;;;;;8265837;28;20050;-66
2021/03/30 16:39:26;;;;;;;4.75;1.90;;;30.50;30.10;;;;;;8275919;28;20484;-66
2021/03/30 16:43:27;;;;;;;7.28;1.90;;;31.20;28.90;;;;;;8298007;28;20084;-66
2021/03/30 16:47:28;;;;;;;3.05;1.50;;;31.60;28.80;;;;;;8298207;28;20030;-66
2021/03/30 16:51:33;;;;;;;4.32;1.40;;;31.50;29.20;;;;;;8280121;28;20057;-66
2021/03/30 16:55:34;;;;;;;3.10;1.38;;;31.60;28.70;;;;;;8280528;28;20484;-66
2021/03/30 16:59:34;;;;;;;3.25;1.55;;;30.50;29.40;;;;;;8297353;28;20060;-66
2021/03/30 17:03:35;;;;;;;3.15;1.40;;;28.10;30.70;;;;;;8296079;28;20529;-65
2021/03/30 17:07:36;;;;;;;2.83;1.40;;;25.80;32.80;;;;;;8297252;28;20104;-65
2021/03/30 17:11:36;;;;;;;3.85;1.40;;;24.30;35.10;;;;;;8296687;28;20032;-66
2021/03/30 17:15:37;;;;;;;2.22;1.13;;;23.10;36.80;;;;;;8279780;28;20030;-65
2021/03/30 17:19:39;;;;;;;4.60;1.42;;;22.10;38.70;;;;;;8296834;28;20037;-65
2021/03/30 17:23:40;;;;;;;6.40;1.60;;;21.30;40.90;;;;;;8279643;28;20510;-65
2021/03/30 17:27:42;;;;;;;3.90;1.20;;;20.40;70.10;;;;;;8297338;28;20029;-65
2021/03/30 17:31:43;;;;;;;6.05;1.50;;;19.40;54.40;;;;;;8296679;28;20025;-66
2021/03/30 17:35:45;;;;;;;4.20;1.23;;;19.00;54.90;;;;;;8295386;28;20029;-65
2021/03/30 17:39:46;;;;;;;2.90;1.20;;;18.70;56.60;;;;;;8279279;28;20026;-64
2021/03/30 17:43:46;;;;;;;6.47;1.40;;;18.40;48.60;;;;;;8289167;28;20030;-64
2021/03/30 17:47:47;;;;;;;5.43;1.67;;;18.10;49.10;;;;;;8291568;28;20030;-66
2021/03/30 17:51:48;;;;;;;8.57;1.90;;;17.50;50.20;;;;;;8263823;28;20072;-67
2021/03/30 17:55:50;;;;;;;6.78;2.20;;;17.10;52.80;;;;;;8271802;28;20028;-67
2021/03/30 17:59:51;;;;;;;18.02;7.50;;;16.80;54.30;;;;;;8277843;28;20025;-66
2021/03/30 18:03:52;;;;;;;15.23;7.80;;;16.40;56.50;;;;;;8260650;28;20523;-67
2021/03/30 18:07:52;;;;;;;12.75;5.75;;;16.10;58.10;;;;;;8287329;28;20022;-67
2021/03/30 18:11:53;;;;;;;7.78;5.00;;;16.20;59.60;;;;;;8286915;28;20022;-68
2021/03/30 18:15:54;;;;;;;12.52;5.60;;;16.00;61.40;;;;;;8282095;28;20491;-68
2021/03/30 18:19:54;;;;;;;10.15;4.68;;;15.40;65.30;;;;;;8281181;28;20033;-68
2021/03/30 18:23:55;;;;;;;11.32;4.90;;;15.00;67.20;;;;;;8263487;28;20030;-69
2021/03/30 18:27:56;;;;;;;10.77;4.75;;;14.60;70.30;;;;;;8276655;28;20029;-69
2021/03/30 18:31:56;;;;;;;6.97;3.85;;;14.30;71.90;;;;;;8256699;28;20038;-70
2021/03/30 18:35:57;;;;;;;8.32;3.28;;;14.10;73.80;;;;;;8268948;28;20086;-71
2021/03/30 18:39:57;;;;;;;8.32;3.65;;;13.90;76.20;;;;;;8272440;28;20034;-71
2021/03/30 18:43:59;;;;;;;7.75;4.18;;;13.70;79.20;;;;;;8265716;28;20030;-69
2021/03/30 18:48:01;;;;;;;8.77;4.00;;;13.50;82.40;;;;;;8267346;28;20030;-70
2021/03/30 18:52:01;;;;;;;10.40;3.83;;;13.20;85.80;;;;;;8247545;28;20046;-70
2021/03/30 18:56:02;;;;;;;7.43;3.80;;;13.00;88.20;;;;;;8274203;28;20125;-69
2021/03/30 19:04:24;;;;;;;10.02;3.00;;;12.70;90.40;;;;;;8267339;28;20044;-69
2021/03/30 19:08:25;;;;;;;7.85;3.00;;;12.40;91.10;;;;;;8253126;28;20107;-69
2021/03/30 19:12:27;;;;;;;5.60;2.65;;;12.20;92.70;;;;;;8271524;28;20045;-68
2021/03/30 19:16:30;;;;;;;7.10;2.72;;;12.10;94.50;;;;;;8272526;28;20079;-69
2021/03/30 19:20:31;;;;;;;6.80;3.45;;;11.90;96.70;;;;;;8277776;28;20071;-69
2021/03/30 19:24:31;;;;;;;18.25;4.63;;;11.80;98.70;;;;;;8271335;28;20117;-68
2021/03/30 19:28:32;;;;;;;11.65;3.53;;;11.70;99.90;;;;;;8267845;28;20029;-69
2021/03/30 19:32:37;;;;;;;6.53;3.28;;;11.40;99.90;;;;;;8268631;28;20036;-68
2021/03/30 19:36:42;;;;;;;4.88;2.90;;;11.30;99.90;;;;;;8276992;28;20021;-69
2021/03/30 19:40:43;;;;;;;5.30;3.45;;;11.10;99.90;;;;;;8283642;28;20130;-69
2021/03/30 19:44:43;;;;;;;9.40;3.83;;;11.00;99.90;;;;;;8290410;28;20041;-70
2021/03/30 19:48:45;;;;;;;7.65;3.85;;;10.80;99.90;;;;;;8293917;28;20041;-69
2021/03/30 19:52:46;;;;;;;12.60;5.28;;;10.90;99.90;;;;;;8276951;28;20690;-69
2021/03/30 19:56:47;;;;;;;10.85;6.00;;;10.50;99.90;;;;;;8292698;28;20026;-70
2021/03/30 20:00:49;;;;;;;14.70;7.38;;;10.30;99.90;;;;;;8294735;28;20033;-70
2021/03/30 20:04:49;;;;;;;16.48;7.85;;;10.10;99.90;;;;;;8294051;28;20720;-69
2021/03/30 20:08:50;;;;;;;13.85;7.40;;;10.00;99.90;;;;;;8293442;28;20049;-69
2021/03/30 20:12:51;;;;;;;15.38;7.30;;;9.90;99.90;;;;;;8276175;28;20022;-70
2021/03/30 20:16:52;;;;;;;12.60;6.97;;;9.80;99.90;;;;;;8276524;28;20040;-70
2021/03/30 20:20:52;;;;;;;14.23;7.05;;;9.70;99.90;;;;;;8294230;28;20058;-69
2021/03/30 20:24:53;;;;;;;15.65;6.80;;;9.60;99.90;;;;;;8292572;28;20106;-70
2021/03/30 20:28:53;;;;;;;15.05;7.55;;;9.50;99.90;;;;;;8277133;28;20032;-69
2021/03/30 20:32:58;;;;;;;14.63;7.50;;;9.30;99.90;;;;;;8295052;28;20036;-69
2021/03/30 20:36:59;;;;;;;17.67;7.18;;;9.20;99.90;;;;;;8294835;28;20040;-69
2021/03/30 20:40:59;;;;;;;469.83;439.83;;;9.20;99.90;;;;;;8276364;28;20040;-71
2021/03/30 20:45:00;;;;;;;12.20;6.15;;;9.10;99.90;;;;;;8292619;28;20110;-71
2021/03/30 20:49:01;;;;;;;11.63;7.10;;;9.00;99.90;;;;;;8275754;28;20030;-71
2021/03/30 20:53:02;;;;;;;19.00;6.55;;;9.00;99.90;;;;;;8287282;28;20141;-71
2021/03/30 20:57:03;;;;;;;13.05;6.95;;;8.90;99.90;;;;;;8290243;28;20030;-71
2021/03/30 21:01:03;;;;;;;14.38;7.05;;;9.00;99.90;;;;;;8296693;28;20377;-71
2021/03/30 21:05:06;;;;;;;14.02;7.03;;;8.80;99.90;;;;;;8297130;28;20030;-71
2021/03/30 21:09:07;;;;;;;10.30;6.25;;;8.70;99.90;;;;;;8296794;28;20601;-71
2021/03/30 21:13:07;;;;;;;11.10;6.05;;;8.60;99.90;;;;;;8296480;28;20030;-71
2021/03/30 21:17:08;;;;;;;14.90;6.47;;;8.40;99.90;;;;;;8296361;28;20061;-71
2021/03/30 21:21:08;;;;;;;11.57;5.78;;;8.20;99.90;;;;;;8296470;28;20053;-71
2021/03/30 21:25:09;;;;;;;10.15;4.88;;;8.00;99.90;;;;;;8296888;28;20034;-71
2021/03/30 21:29:10;;;;;;;7.20;4.35;;;7.80;99.90;;;;;;8278758;28;20026;-71
2021/03/30 21:33:11;;;;;;;7.50;4.53;;;7.60;99.90;;;;;;8295875;28;20022;-70